sensor_id;sensor_type;location;lat;lon;timestamp;P1;durP1;ratioP1;P2;durP2;ratioP2
57111;SDS011;42992;49.084;19.300;2023-02-01T00:04:58;2.90;;;0.88;;
57111;SDS011;42992;49.084;19.300;2023-02-01T00:13:21;1.75;;;0.80;;
57111;SDS011;42992;49.084;19.300;2023-02-01T00:19:49;1.60;;;0.73;;
57111;SDS011;42992;49.084;19.300;2023-02-01T00:25:33;2.30;;;1.00;;
57111;SDS011;42992;49.084;19.300;2023-02-01T00:37:07;3.08;;;1.40;;
57111;SDS011;42992;49.084;19.300;2023-02-01T00:39:54;3.17;;;1.42;;
57111;SDS011;42992;49.084;19.300;2023-02-01T00:42:39;3.67;;;1.35;;
57111;SDS011;42992;49.084;19.300;2023-02-01T00:45:35;3.03;;;1.40;;
57111;SDS011;42992;49.084;19.300;2023-02-01T00:48:18;4.60;;;1.48;;
57111;SDS011;42992;49.084;19.300;2023-02-01T00:50:46;3.10;;;1.60;;
57111;SDS011;42992;49.084;19.300;2023-02-01T00:53:18;3.42;;;1.38;;
57111;SDS011;42992;49.084;19.300;2023-02-01T00:55:57;2.53;;;1.30;;
57111;SDS011;42992;49.084;19.300;2023-02-01T00:58:40;7.13;;;1.60;;
57111;SDS011;42992;49.084;19.300;2023-02-01T01:01:19;3.03;;;1.40;;
57111;SDS011;42992;49.084;19.300;2023-02-01T01:03:58;3.38;;;1.40;;
57111;SDS011;42992;49.084;19.300;2023-02-01T01:06:32;3.97;;;1.52;;
57111;SDS011;42992;49.084;19.300;2023-02-01T01:09:01;3.28;;;1.35;;
57111;SDS011;42992;49.084;19.300;2023-02-01T01:11:30;3.20;;;1.30;;
57111;SDS011;42992;49.084;19.300;2023-02-01T01:14:21;3.47;;;1.40;;
57111;SDS011;42992;49.084;19.300;2023-02-01T01:16:47;3.83;;;1.55;;
57111;SDS011;42992;49.084;19.300;2023-02-01T01:19:25;3.05;;;1.33;;
57111;SDS011;42992;49.084;19.300;2023-02-01T01:21:52;5.03;;;1.58;;
57111;SDS011;42992;49.084;19.300;2023-02-01T01:24:24;3.08;;;1.30;;
57111;SDS011;42992;49.084;19.300;2023-02-01T01:26:53;5.78;;;1.70;;
57111;SDS011;42992;49.084;19.300;2023-02-01T01:29:19;3.15;;;1.30;;
57111;SDS011;42992;49.084;19.300;2023-02-01T01:31:48;2.97;;;1.40;;
57111;SDS011;42992;49.084;19.300;2023-02-01T01:34:32;3.65;;;1.50;;
57111;SDS011;42992;49.084;19.300;2023-02-01T01:37:00;2.95;;;1.33;;
57111;SDS011;42992;49.084;19.300;2023-02-01T01:39:35;3.40;;;1.35;;
57111;SDS011;42992;49.084;19.300;2023-02-01T01:42:03;3.40;;;1.45;;
57111;SDS011;42992;49.084;19.300;2023-02-01T01:47:20;3.45;;;1.67;;
57111;SDS011;42992;49.084;19.300;2023-02-01T01:50:13;3.28;;;1.63;;
57111;SDS011;42992;49.084;19.300;2023-02-01T01:52:46;3.75;;;1.55;;
57111;SDS011;42992;49.084;19.300;2023-02-01T01:55:23;4.00;;;1.73;;
57111;SDS011;42992;49.084;19.300;2023-02-01T01:58:02;3.75;;;1.85;;
57111;SDS011;42992;49.084;19.300;2023-02-01T02:01:01;2.97;;;1.60;;
57111;SDS011;42992;49.084;19.300;2023-02-01T02:03:42;4.60;;;2.10;;
57111;SDS011;42992;49.084;19.300;2023-02-01T02:06:12;5.82;;;2.10;;
57111;SDS011;42992;49.084;19.300;2023-02-01T02:08:42;4.35;;;1.90;;
57111;SDS011;42992;49.084;19.300;2023-02-01T02:11:08;5.80;;;1.73;;
57111;SDS011;42992;49.084;19.300;2023-02-01T02:13:38;5.40;;;2.30;;
57111;SDS011;42992;49.084;19.300;2023-02-01T02:21:52;3.30;;;1.55;;
57111;SDS011;42992;49.084;19.300;2023-02-01T02:27:34;3.50;;;1.58;;
57111;SDS011;42992;49.084;19.300;2023-02-01T02:30:22;3.20;;;1.48;;
57111;SDS011;42992;49.084;19.300;2023-02-01T02:38:45;2.90;;;1.20;;
57111;SDS011;42992;49.084;19.300;2023-02-01T02:50:45;3.53;;;1.05;;
57111;SDS011;42992;49.084;19.300;2023-02-01T02:53:35;1.85;;;0.82;;
57111;SDS011;42992;49.084;19.300;2023-02-01T02:56:20;2.03;;;0.82;;
57111;SDS011;42992;49.084;19.300;2023-02-01T02:59:08;2.03;;;0.80;;
57111;SDS011;42992;49.084;19.300;2023-02-01T03:04:56;1.65;;;0.70;;
57111;SDS011;42992;49.084;19.300;2023-02-01T03:13:04;1.85;;;1.00;;
57111;SDS011;42992;49.084;19.300;2023-02-01T03:15:38;4.13;;;0.82;;
57111;SDS011;42992;49.084;19.300;2023-02-01T03:18:11;1.52;;;0.77;;
57111;SDS011;42992;49.084;19.300;2023-02-01T03:20:39;1.80;;;0.50;;
57111;SDS011;42992;49.084;19.300;2023-02-01T03:23:06;2.70;;;0.77;;
57111;SDS011;42992;49.084;19.300;2023-02-01T03:25:36;1.77;;;0.70;;
57111;SDS011;42992;49.084;19.300;2023-02-01T03:28:06;2.88;;;0.90;;
57111;SDS011;42992;49.084;19.300;2023-02-01T03:33:33;3.35;;;0.82;;
57111;SDS011;42992;49.084;19.300;2023-02-01T03:42:17;2.70;;;0.90;;
57111;SDS011;42992;49.084;19.300;2023-02-01T03:47:54;5.75;;;1.10;;
57111;SDS011;42992;49.084;19.300;2023-02-01T03:50:49;4.00;;;1.10;;
57111;SDS011;42992;49.084;19.300;2023-02-01T03:53:25;2.47;;;0.90;;
57111;SDS011;42992;49.084;19.300;2023-02-01T03:55:57;2.95;;;1.00;;
57111;SDS011;42992;49.084;19.300;2023-02-01T03:58:34;2.88;;;1.00;;
57111;SDS011;42992;49.084;19.300;2023-02-01T04:01:02;4.15;;;1.05;;
57111;SDS011;42992;49.084;19.300;2023-02-01T04:03:27;2.03;;;0.95;;
57111;SDS011;42992;49.084;19.300;2023-02-01T04:05:58;3.28;;;1.08;;
57111;SDS011;42992;49.084;19.300;2023-02-01T04:08:36;2.03;;;0.90;;
57111;SDS011;42992;49.084;19.300;2023-02-01T04:11:09;2.53;;;0.93;;
57111;SDS011;42992;49.084;19.300;2023-02-01T04:13:42;3.05;;;1.05;;
57111;SDS011;42992;49.084;19.300;2023-02-01T04:16:35;5.50;;;1.73;;
57111;SDS011;42992;49.084;19.300;2023-02-01T04:19:29;4.47;;;1.40;;
57111;SDS011;42992;49.084;19.300;2023-02-01T04:22:15;2.22;;;0.82;;
57111;SDS011;42992;49.084;19.300;2023-02-01T04:24:42;2.88;;;0.90;;
57111;SDS011;42992;49.084;19.300;2023-02-01T04:27:07;2.47;;;1.05;;
57111;SDS011;42992;49.084;19.300;2023-02-01T04:29:41;3.20;;;1.02;;
57111;SDS011;42992;49.084;19.300;2023-02-01T04:32:07;5.15;;;1.45;;
57111;SDS011;42992;49.084;19.300;2023-02-01T04:34:35;3.13;;;1.10;;
57111;SDS011;42992;49.084;19.300;2023-02-01T04:37:06;2.85;;;1.10;;
57111;SDS011;42992;49.084;19.300;2023-02-01T04:39:33;4.63;;;1.15;;
57111;SDS011;42992;49.084;19.300;2023-02-01T04:41:58;4.10;;;1.40;;
57111;SDS011;42992;49.084;19.300;2023-02-01T04:44:26;5.93;;;1.50;;
57111;SDS011;42992;49.084;19.300;2023-02-01T04:46:53;5.22;;;2.25;;
57111;SDS011;42992;49.084;19.300;2023-02-01T04:49:21;3.67;;;1.02;;
57111;SDS011;42992;49.084;19.300;2023-02-01T04:51:46;3.50;;;1.10;;
57111;SDS011;42992;49.084;19.300;2023-02-01T04:54:21;5.40;;;1.00;;
57111;SDS011;42992;49.084;19.300;2023-02-01T04:56:46;3.20;;;1.10;;
57111;SDS011;42992;49.084;19.300;2023-02-01T04:59:14;4.13;;;1.23;;
57111;SDS011;42992;49.084;19.300;2023-02-01T05:01:54;5.72;;;1.95;;
57111;SDS011;42992;49.084;19.300;2023-02-01T05:04:19;5.03;;;1.58;;
57111;SDS011;42992;49.084;19.300;2023-02-01T05:06:45;3.28;;;1.13;;
57111;SDS011;42992;49.084;19.300;2023-02-01T05:09:10;4.70;;;1.17;;
57111;SDS011;42992;49.084;19.300;2023-02-01T05:11:36;4.90;;;0.90;;
57111;SDS011;42992;49.084;19.300;2023-02-01T05:14:20;4.57;;;1.00;;
57111;SDS011;42992;49.084;19.300;2023-02-01T05:16:46;6.05;;;1.00;;
57111;SDS011;42992;49.084;19.300;2023-02-01T05:19:13;4.90;;;1.20;;
57111;SDS011;42992;49.084;19.300;2023-02-01T05:21:39;4.65;;;1.35;;
57111;SDS011;42992;49.084;19.300;2023-02-01T05:24:04;6.35;;;1.80;;
57111;SDS011;42992;49.084;19.300;2023-02-01T05:26:39;5.65;;;1.85;;
57111;SDS011;42992;49.084;19.300;2023-02-01T05:29:09;3.75;;;0.85;;
57111;SDS011;42992;49.084;19.300;2023-02-01T05:31:35;3.35;;;1.17;;
57111;SDS011;42992;49.084;19.300;2023-02-01T05:34:08;6.72;;;1.38;;
57111;SDS011;42992;49.084;19.300;2023-02-01T05:39:51;5.93;;;1.30;;
57111;SDS011;42992;49.084;19.300;2023-02-01T05:42:22;3.03;;;1.08;;
57111;SDS011;42992;49.084;19.300;2023-02-01T05:44:47;4.28;;;1.27;;
57111;SDS011;42992;49.084;19.300;2023-02-01T05:47:13;3.33;;;1.00;;
57111;SDS011;42992;49.084;19.300;2023-02-01T05:49:38;6.50;;;1.30;;
57111;SDS011;42992;49.084;19.300;2023-02-01T05:52:03;3.28;;;1.02;;
57111;SDS011;42992;49.084;19.300;2023-02-01T05:54:32;7.20;;;1.67;;
57111;SDS011;42992;49.084;19.300;2023-02-01T05:59:45;6.80;;;2.42;;
57111;SDS011;42992;49.084;19.300;2023-02-01T06:02:14;5.43;;;2.08;;
57111;SDS011;42992;49.084;19.300;2023-02-01T06:04:45;5.72;;;1.77;;
57111;SDS011;42992;49.084;19.300;2023-02-01T06:07:11;7.50;;;3.28;;
57111;SDS011;42992;49.084;19.300;2023-02-01T06:09:45;5.57;;;2.40;;
57111;SDS011;42992;49.084;19.300;2023-02-01T06:12:15;4.43;;;1.48;;
57111;SDS011;42992;49.084;19.300;2023-02-01T06:14:44;6.53;;;2.15;;
57111;SDS011;42992;49.084;19.300;2023-02-01T06:22:14;7.15;;;1.35;;
57111;SDS011;42992;49.084;19.300;2023-02-01T06:24:41;3.30;;;1.00;;
57111;SDS011;42992;49.084;19.300;2023-02-01T06:27:07;3.85;;;1.35;;
57111;SDS011;42992;49.084;19.300;2023-02-01T06:29:32;5.43;;;1.60;;
57111;SDS011;42992;49.084;19.300;2023-02-01T06:32:01;4.65;;;1.60;;
57111;SDS011;42992;49.084;19.300;2023-02-01T06:34:50;4.47;;;1.60;;
57111;SDS011;42992;49.084;19.300;2023-02-01T06:37:17;6.65;;;2.22;;
57111;SDS011;42992;49.084;19.300;2023-02-01T06:39:42;5.30;;;1.80;;
57111;SDS011;42992;49.084;19.300;2023-02-01T06:42:08;8.68;;;2.22;;
57111;SDS011;42992;49.084;19.300;2023-02-01T06:44:35;6.88;;;2.00;;
57111;SDS011;42992;49.084;19.300;2023-02-01T06:47:02;6.95;;;2.40;;
57111;SDS011;42992;49.084;19.300;2023-02-01T06:49:33;7.68;;;2.20;;
57111;SDS011;42992;49.084;19.300;2023-02-01T06:52:02;9.93;;;2.10;;
57111;SDS011;42992;49.084;19.300;2023-02-01T06:58:07;7.40;;;2.13;;
57111;SDS011;42992;49.084;19.300;2023-02-01T07:00:34;8.32;;;2.25;;
57111;SDS011;42992;49.084;19.300;2023-02-01T07:03:05;11.23;;;3.58;;
57111;SDS011;42992;49.084;19.300;2023-02-01T07:05:34;6.32;;;2.20;;
57111;SDS011;42992;49.084;19.300;2023-02-01T07:08:27;8.25;;;2.30;;
57111;SDS011;42992;49.084;19.300;2023-02-01T07:11:08;10.25;;;3.80;;
57111;SDS011;42992;49.084;19.300;2023-02-01T07:13:34;11.00;;;3.70;;
57111;SDS011;42992;49.084;19.300;2023-02-01T07:16:00;6.25;;;1.85;;
57111;SDS011;42992;49.084;19.300;2023-02-01T07:18:36;6.88;;;2.72;;
57111;SDS011;42992;49.084;19.300;2023-02-01T07:25:54;10.63;;;4.33;;
57111;SDS011;42992;49.084;19.300;2023-02-01T07:28:39;11.68;;;5.40;;
57111;SDS011;42992;49.084;19.300;2023-02-01T07:31:11;16.38;;;6.93;;
57111;SDS011;42992;49.084;19.300;2023-02-01T07:33:57;19.42;;;9.75;;
57111;SDS011;42992;49.084;19.300;2023-02-01T07:36:23;17.55;;;9.02;;
57111;SDS011;42992;49.084;19.300;2023-02-01T07:38:53;11.05;;;5.43;;
57111;SDS011;42992;49.084;19.300;2023-02-01T07:41:19;8.93;;;3.60;;
57111;SDS011;42992;49.084;19.300;2023-02-01T07:43:45;8.98;;;3.05;;
57111;SDS011;42992;49.084;19.300;2023-02-01T07:46:13;8.80;;;4.10;;
57111;SDS011;42992;49.084;19.300;2023-02-01T07:48:52;7.05;;;3.10;;
57111;SDS011;42992;49.084;19.300;2023-02-01T07:51:19;9.55;;;3.80;;
57111;SDS011;42992;49.084;19.300;2023-02-01T07:53:52;16.83;;;3.67;;
57111;SDS011;42992;49.084;19.300;2023-02-01T07:56:22;6.72;;;3.08;;
57111;SDS011;42992;49.084;19.300;2023-02-01T07:59:07;7.57;;;2.50;;
57111;SDS011;42992;49.084;19.300;2023-02-01T08:01:34;6.45;;;2.53;;
57111;SDS011;42992;49.084;19.300;2023-02-01T08:04:19;9.23;;;2.67;;
57111;SDS011;42992;49.084;19.300;2023-02-01T08:07:00;7.30;;;2.85;;
57111;SDS011;42992;49.084;19.300;2023-02-01T08:09:45;9.65;;;2.90;;
57111;SDS011;42992;49.084;19.300;2023-02-01T08:12:27;6.68;;;2.95;;
57111;SDS011;42992;49.084;19.300;2023-02-01T08:15:02;6.25;;;2.05;;
57111;SDS011;42992;49.084;19.300;2023-02-01T08:20:08;5.15;;;2.00;;
57111;SDS011;42992;49.084;19.300;2023-02-01T08:22:48;6.85;;;2.13;;
57111;SDS011;42992;49.084;19.300;2023-02-01T08:25:35;5.47;;;2.10;;
57111;SDS011;42992;49.084;19.300;2023-02-01T08:30:56;6.88;;;2.08;;
57111;SDS011;42992;49.084;19.300;2023-02-01T08:34:09;10.63;;;2.28;;
57111;SDS011;42992;49.084;19.300;2023-02-01T08:36:37;8.45;;;2.03;;
57111;SDS011;42992;49.084;19.300;2023-02-01T08:39:30;6.78;;;2.08;;
57111;SDS011;42992;49.084;19.300;2023-02-01T08:41:58;3.80;;;1.33;;
57111;SDS011;42992;49.084;19.300;2023-02-01T08:44:41;5.30;;;2.58;;
57111;SDS011;42992;49.084;19.300;2023-02-01T08:47:10;6.15;;;1.67;;
57111;SDS011;42992;49.084;19.300;2023-02-01T08:49:37;5.88;;;1.45;;
57111;SDS011;42992;49.084;19.300;2023-02-01T08:52:07;4.85;;;1.27;;
57111;SDS011;42992;49.084;19.300;2023-02-01T08:54:51;4.65;;;1.25;;
57111;SDS011;42992;49.084;19.300;2023-02-01T08:57:20;7.88;;;1.75;;
57111;SDS011;42992;49.084;19.300;2023-02-01T08:59:52;4.93;;;1.58;;
57111;SDS011;42992;49.084;19.300;2023-02-01T09:02:18;8.02;;;2.00;;
57111;SDS011;42992;49.084;19.300;2023-02-01T09:04:44;9.23;;;2.58;;
57111;SDS011;42992;49.084;19.300;2023-02-01T09:07:16;7.53;;;1.90;;
57111;SDS011;42992;49.084;19.300;2023-02-01T09:15:12;3.80;;;1.60;;
57111;SDS011;42992;49.084;19.300;2023-02-01T09:17:38;6.07;;;2.05;;
57111;SDS011;42992;49.084;19.300;2023-02-01T09:20:12;5.30;;;2.28;;
57111;SDS011;42992;49.084;19.300;2023-02-01T09:22:42;5.00;;;1.83;;
57111;SDS011;42992;49.084;19.300;2023-02-01T09:25:17;11.35;;;2.38;;
57111;SDS011;42992;49.084;19.300;2023-02-01T09:27:54;5.18;;;2.13;;
57111;SDS011;42992;49.084;19.300;2023-02-01T09:30:27;8.68;;;2.40;;
57111;SDS011;42992;49.084;19.300;2023-02-01T09:32:53;6.03;;;2.10;;
57111;SDS011;42992;49.084;19.300;2023-02-01T09:35:20;7.85;;;2.38;;
57111;SDS011;42992;49.084;19.300;2023-02-01T09:38:01;6.40;;;1.75;;
57111;SDS011;42992;49.084;19.300;2023-02-01T09:40:29;4.78;;;1.60;;
57111;SDS011;42992;49.084;19.300;2023-02-01T09:46:06;7.03;;;2.10;;
57111;SDS011;42992;49.084;19.300;2023-02-01T09:48:40;6.32;;;1.92;;
57111;SDS011;42992;49.084;19.300;2023-02-01T09:51:17;9.55;;;2.33;;
57111;SDS011;42992;49.084;19.300;2023-02-01T09:54:22;8.80;;;2.33;;
57111;SDS011;42992;49.084;19.300;2023-02-01T09:57:38;11.77;;;3.10;;
57111;SDS011;42992;49.084;19.300;2023-02-01T10:00:00;5.55;;;2.22;;
57111;SDS011;42992;49.084;19.300;2023-02-01T10:02:29;7.35;;;2.50;;
57111;SDS011;42992;49.084;19.300;2023-02-01T10:04:57;7.40;;;2.35;;
57111;SDS011;42992;49.084;19.300;2023-02-01T10:07:34;9.80;;;2.75;;
57111;SDS011;42992;49.084;19.300;2023-02-01T10:10:28;8.70;;;2.90;;
57111;SDS011;42992;49.084;19.300;2023-02-01T10:13:09;6.90;;;2.08;;
57111;SDS011;42992;49.084;19.300;2023-02-01T10:23:53;6.43;;;2.40;;
57111;SDS011;42992;49.084;19.300;2023-02-01T10:26:25;9.25;;;2.47;;
57111;SDS011;42992;49.084;19.300;2023-02-01T10:28:58;8.65;;;2.30;;
57111;SDS011;42992;49.084;19.300;2023-02-01T10:31:26;6.05;;;1.92;;
57111;SDS011;42992;49.084;19.300;2023-02-01T10:33:57;6.78;;;2.03;;
57111;SDS011;42992;49.084;19.300;2023-02-01T10:36:36;6.47;;;1.90;;
57111;SDS011;42992;49.084;19.300;2023-02-01T10:39:09;11.13;;;2.30;;
57111;SDS011;42992;49.084;19.300;2023-02-01T10:45:12;6.50;;;2.08;;
57111;SDS011;42992;49.084;19.300;2023-02-01T10:47:48;9.43;;;2.42;;
57111;SDS011;42992;49.084;19.300;2023-02-01T10:53:50;7.78;;;2.40;;
57111;SDS011;42992;49.084;19.300;2023-02-01T10:56:34;5.28;;;2.20;;
57111;SDS011;42992;49.084;19.300;2023-02-01T10:59:27;6.55;;;2.35;;
57111;SDS011;42992;49.084;19.300;2023-02-01T11:02:29;6.85;;;2.28;;
57111;SDS011;42992;49.084;19.300;2023-02-01T11:11:33;9.27;;;3.78;;
57111;SDS011;42992;49.084;19.300;2023-02-01T11:17:21;7.82;;;3.42;;
57111;SDS011;42992;49.084;19.300;2023-02-01T11:20:38;6.20;;;2.50;;
57111;SDS011;42992;49.084;19.300;2023-02-01T11:23:26;6.50;;;2.20;;
57111;SDS011;42992;49.084;19.300;2023-02-01T11:29:05;3.55;;;1.60;;
57111;SDS011;42992;49.084;19.300;2023-02-01T11:31:35;5.15;;;1.65;;
57111;SDS011;42992;49.084;19.300;2023-02-01T11:34:22;8.38;;;1.92;;
57111;SDS011;42992;49.084;19.300;2023-02-01T11:36:47;5.45;;;1.95;;
57111;SDS011;42992;49.084;19.300;2023-02-01T11:39:23;7.30;;;1.70;;
57111;SDS011;42992;49.084;19.300;2023-02-01T11:41:55;4.47;;;1.75;;
57111;SDS011;42992;49.084;19.300;2023-02-01T11:44:31;7.13;;;2.30;;
57111;SDS011;42992;49.084;19.300;2023-02-01T11:47:12;4.95;;;1.70;;
57111;SDS011;42992;49.084;19.300;2023-02-01T11:49:38;4.03;;;1.77;;
57111;SDS011;42992;49.084;19.300;2023-02-01T11:54:50;6.93;;;2.15;;
57111;SDS011;42992;49.084;19.300;2023-02-01T11:57:29;6.15;;;2.33;;
57111;SDS011;42992;49.084;19.300;2023-02-01T12:02:55;7.25;;;2.00;;
57111;SDS011;42992;49.084;19.300;2023-02-01T12:29:43;6.25;;;2.08;;
57111;SDS011;42992;49.084;19.300;2023-02-01T12:32:44;4.28;;;1.52;;
57111;SDS011;42992;49.084;19.300;2023-02-01T12:35:28;5.28;;;1.60;;
57111;SDS011;42992;49.084;19.300;2023-02-01T12:41:02;4.18;;;1.60;;
57111;SDS011;42992;49.084;19.300;2023-02-01T12:44:10;4.75;;;1.90;;
57111;SDS011;42992;49.084;19.300;2023-02-01T12:46:49;3.97;;;1.77;;
57111;SDS011;42992;49.084;19.300;2023-02-01T12:49:17;6.70;;;2.17;;
57111;SDS011;42992;49.084;19.300;2023-02-01T12:51:52;6.95;;;2.45;;
57111;SDS011;42992;49.084;19.300;2023-02-01T12:57:08;5.72;;;2.20;;
57111;SDS011;42992;49.084;19.300;2023-02-01T12:59:41;4.53;;;1.67;;
57111;SDS011;42992;49.084;19.300;2023-02-01T13:07:37;3.72;;;1.42;;
57111;SDS011;42992;49.084;19.300;2023-02-01T13:15:57;3.90;;;1.30;;
57111;SDS011;42992;49.084;19.300;2023-02-01T13:27:28;5.72;;;2.40;;
57111;SDS011;42992;49.084;19.300;2023-02-01T13:30:10;6.88;;;2.47;;
57111;SDS011;42992;49.084;19.300;2023-02-01T13:35:55;7.90;;;2.70;;
57111;SDS011;42992;49.084;19.300;2023-02-01T13:47:26;5.75;;;2.20;;
57111;SDS011;42992;49.084;19.300;2023-02-01T13:50:35;3.75;;;1.90;;
57111;SDS011;42992;49.084;19.300;2023-02-01T13:56:01;10.95;;;4.88;;
57111;SDS011;42992;49.084;19.300;2023-02-01T13:58:47;7.85;;;4.00;;
57111;SDS011;42992;49.084;19.300;2023-02-01T14:04:45;10.02;;;5.25;;
57111;SDS011;42992;49.084;19.300;2023-02-01T14:06:54;7.47;;;4.03;;
57111;SDS011;42992;49.084;19.300;2023-02-01T14:09:31;6.70;;;2.90;;
57111;SDS011;42992;49.084;19.300;2023-02-01T14:30:05;4.32;;;1.80;;
57111;SDS011;42992;49.084;19.300;2023-02-01T14:32:30;6.47;;;2.42;;
57111;SDS011;42992;49.084;19.300;2023-02-01T14:35:00;6.45;;;2.30;;
57111;SDS011;42992;49.084;19.300;2023-02-01T14:37:29;6.80;;;2.80;;
57111;SDS011;42992;49.084;19.300;2023-02-01T14:40:06;8.93;;;3.45;;
57111;SDS011;42992;49.084;19.300;2023-02-01T14:42:50;9.13;;;4.15;;
57111;SDS011;42992;49.084;19.300;2023-02-01T14:50:57;10.35;;;4.28;;
57111;SDS011;42992;49.084;19.300;2023-02-01T14:53:30;6.40;;;2.83;;
57111;SDS011;42992;49.084;19.300;2023-02-01T14:56:23;5.95;;;2.58;;
57111;SDS011;42992;49.084;19.300;2023-02-01T14:59:01;5.10;;;2.35;;
57111;SDS011;42992;49.084;19.300;2023-02-01T15:01:55;6.30;;;2.58;;
57111;SDS011;42992;49.084;19.300;2023-02-01T15:07:26;6.05;;;2.95;;
57111;SDS011;42992;49.084;19.300;2023-02-01T15:09:58;7.53;;;3.42;;
57111;SDS011;42992;49.084;19.300;2023-02-01T15:16:14;6.07;;;2.20;;
57111;SDS011;42992;49.084;19.300;2023-02-01T15:18:44;3.88;;;1.63;;
57111;SDS011;42992;49.084;19.300;2023-02-01T15:24:37;4.38;;;2.17;;
57111;SDS011;42992;49.084;19.300;2023-02-01T15:33:31;7.97;;;3.53;;
57111;SDS011;42992;49.084;19.300;2023-02-01T15:36:17;5.35;;;2.45;;
57111;SDS011;42992;49.084;19.300;2023-02-01T15:48:18;9.15;;;3.47;;
57111;SDS011;42992;49.084;19.300;2023-02-01T15:50:51;8.60;;;3.80;;
57111;SDS011;42992;49.084;19.300;2023-02-01T15:53:45;9.43;;;4.30;;
57111;SDS011;42992;49.084;19.300;2023-02-01T16:02:36;8.00;;;4.25;;
57111;SDS011;42992;49.084;19.300;2023-02-01T16:05:33;9.43;;;4.78;;
57111;SDS011;42992;49.084;19.300;2023-02-01T16:08:22;5.88;;;3.08;;
57111;SDS011;42992;49.084;19.300;2023-02-01T16:13:51;7.00;;;3.13;;
57111;SDS011;42992;49.084;19.300;2023-02-01T16:16:22;7.78;;;3.60;;
57111;SDS011;42992;49.084;19.300;2023-02-01T16:30:35;11.40;;;4.88;;
57111;SDS011;42992;49.084;19.300;2023-02-01T16:33:11;8.02;;;4.40;;
57111;SDS011;42992;49.084;19.300;2023-02-01T16:39:11;8.60;;;4.22;;
57111;SDS011;42992;49.084;19.300;2023-02-01T16:41:50;8.80;;;3.97;;
57111;SDS011;42992;49.084;19.300;2023-02-01T16:47:20;7.95;;;3.75;;
57111;SDS011;42992;49.084;19.300;2023-02-01T16:50:17;7.10;;;4.00;;
57111;SDS011;42992;49.084;19.300;2023-02-01T16:52:50;6.68;;;3.97;;
57111;SDS011;42992;49.084;19.300;2023-02-01T16:55:56;8.02;;;4.15;;
57111;SDS011;42992;49.084;19.300;2023-02-01T16:58:37;10.48;;;5.15;;
57111;SDS011;42992;49.084;19.300;2023-02-01T17:01:43;11.98;;;4.93;;
57111;SDS011;42992;49.084;19.300;2023-02-01T17:04:11;12.38;;;5.22;;
57111;SDS011;42992;49.084;19.300;2023-02-01T17:06:38;13.75;;;7.45;;
57111;SDS011;42992;49.084;19.300;2023-02-01T17:15:11;6.50;;;3.60;;
57111;SDS011;42992;49.084;19.300;2023-02-01T17:23:09;6.53;;;3.20;;
57111;SDS011;42992;49.084;19.300;2023-02-01T17:26:07;6.60;;;2.85;;
57111;SDS011;42992;49.084;19.300;2023-02-01T17:28:57;7.57;;;3.50;;
57111;SDS011;42992;49.084;19.300;2023-02-01T17:34:33;12.40;;;5.90;;
57111;SDS011;42992;49.084;19.300;2023-02-01T17:39:46;6.85;;;3.58;;
57111;SDS011;42992;49.084;19.300;2023-02-01T17:42:35;5.05;;;2.42;;
57111;SDS011;42992;49.084;19.300;2023-02-01T17:53:48;8.60;;;4.75;;
57111;SDS011;42992;49.084;19.300;2023-02-01T18:02:36;9.40;;;5.03;;
57111;SDS011;42992;49.084;19.300;2023-02-01T18:05:16;6.50;;;3.28;;
57111;SDS011;42992;49.084;19.300;2023-02-01T18:12:57;8.05;;;4.88;;
57111;SDS011;42992;49.084;19.300;2023-02-01T18:24:18;9.02;;;3.63;;
57111;SDS011;42992;49.084;19.300;2023-02-01T18:26:56;8.52;;;3.95;;
57111;SDS011;42992;49.084;19.300;2023-02-01T18:29:30;9.63;;;4.28;;
57111;SDS011;42992;49.084;19.300;2023-02-01T18:32:05;8.43;;;4.25;;
57111;SDS011;42992;49.084;19.300;2023-02-01T18:37:47;12.45;;;3.72;;
57111;SDS011;42992;49.084;19.300;2023-02-01T18:40:41;7.32;;;3.95;;
57111;SDS011;42992;49.084;19.300;2023-02-01T18:43:16;7.68;;;3.80;;
57111;SDS011;42992;49.084;19.300;2023-02-01T18:51:30;9.90;;;3.83;;
57111;SDS011;42992;49.084;19.300;2023-02-01T18:57:49;8.48;;;3.58;;
57111;SDS011;42992;49.084;19.300;2023-02-01T19:06:30;6.82;;;3.40;;
57111;SDS011;42992;49.084;19.300;2023-02-01T19:11:42;6.53;;;2.75;;
57111;SDS011;42992;49.084;19.300;2023-02-01T19:20:28;8.85;;;3.53;;
57111;SDS011;42992;49.084;19.300;2023-02-01T19:40:30;11.18;;;3.88;;
57111;SDS011;42992;49.084;19.300;2023-02-01T19:45:12;6.78;;;3.17;;
57111;SDS011;42992;49.084;19.300;2023-02-01T19:54:16;6.80;;;2.85;;
57111;SDS011;42992;49.084;19.300;2023-02-01T19:57:00;6.63;;;2.95;;
57111;SDS011;42992;49.084;19.300;2023-02-01T19:59:44;8.13;;;3.08;;
57111;SDS011;42992;49.084;19.300;2023-02-01T20:02:29;9.60;;;3.53;;
57111;SDS011;42992;49.084;19.300;2023-02-01T20:04:56;9.23;;;3.25;;
57111;SDS011;42992;49.084;19.300;2023-02-01T20:07:29;7.43;;;3.40;;
57111;SDS011;42992;49.084;19.300;2023-02-01T20:09:55;8.32;;;3.55;;
57111;SDS011;42992;49.084;19.300;2023-02-01T20:12:20;4.65;;;2.17;;
57111;SDS011;42992;49.084;19.300;2023-02-01T20:14:51;8.35;;;2.53;;
57111;SDS011;42992;49.084;19.300;2023-02-01T20:17:22;7.68;;;2.60;;
57111;SDS011;42992;49.084;19.300;2023-02-01T20:28:31;6.05;;;2.80;;
57111;SDS011;42992;49.084;19.300;2023-02-01T20:30:58;7.07;;;2.40;;
57111;SDS011;42992;49.084;19.300;2023-02-01T20:38:46;6.43;;;2.20;;
57111;SDS011;42992;49.084;19.300;2023-02-01T20:41:12;5.82;;;2.00;;
57111;SDS011;42992;49.084;19.300;2023-02-01T20:43:37;5.45;;;1.98;;
57111;SDS011;42992;49.084;19.300;2023-02-01T20:46:07;4.97;;;2.20;;
57111;SDS011;42992;49.084;19.300;2023-02-01T20:48:36;7.90;;;2.30;;
57111;SDS011;42992;49.084;19.300;2023-02-01T20:51:03;5.28;;;2.03;;
57111;SDS011;42992;49.084;19.300;2023-02-01T20:53:30;6.20;;;2.28;;
57111;SDS011;42992;49.084;19.300;2023-02-01T20:55:56;6.03;;;2.45;;
57111;SDS011;42992;49.084;19.300;2023-02-01T20:58:22;4.93;;;1.90;;
57111;SDS011;42992;49.084;19.300;2023-02-01T21:00:47;5.30;;;1.63;;
57111;SDS011;42992;49.084;19.300;2023-02-01T21:03:13;6.93;;;1.80;;
57111;SDS011;42992;49.084;19.300;2023-02-01T21:05:39;6.53;;;2.20;;
57111;SDS011;42992;49.084;19.300;2023-02-01T21:08:08;7.72;;;2.83;;
57111;SDS011;42992;49.084;19.300;2023-02-01T21:10:34;4.35;;;1.98;;
57111;SDS011;42992;49.084;19.300;2023-02-01T21:13:01;5.22;;;2.42;;
57111;SDS011;42992;49.084;19.300;2023-02-01T21:15:27;5.18;;;2.13;;
57111;SDS011;42992;49.084;19.300;2023-02-01T21:17:53;6.55;;;2.30;;
57111;SDS011;42992;49.084;19.300;2023-02-01T21:20:21;5.13;;;2.28;;
57111;SDS011;42992;49.084;19.300;2023-02-01T21:22:50;5.25;;;2.10;;
57111;SDS011;42992;49.084;19.300;2023-02-01T21:25:15;5.13;;;2.10;;
57111;SDS011;42992;49.084;19.300;2023-02-01T21:27:44;7.05;;;2.42;;
57111;SDS011;42992;49.084;19.300;2023-02-01T21:30:11;7.65;;;3.05;;
57111;SDS011;42992;49.084;19.300;2023-02-01T21:32:37;11.00;;;5.40;;
57111;SDS011;42992;49.084;19.300;2023-02-01T21:35:05;7.85;;;3.45;;
57111;SDS011;42992;49.084;19.300;2023-02-01T21:37:36;7.22;;;2.65;;
57111;SDS011;42992;49.084;19.300;2023-02-01T21:40:02;7.97;;;3.28;;
57111;SDS011;42992;49.084;19.300;2023-02-01T21:42:28;10.52;;;4.20;;
57111;SDS011;42992;49.084;19.300;2023-02-01T21:44:54;9.45;;;4.72;;
57111;SDS011;42992;49.084;19.300;2023-02-01T21:47:23;8.55;;;4.43;;
57111;SDS011;42992;49.084;19.300;2023-02-01T21:49:49;7.55;;;4.43;;
57111;SDS011;42992;49.084;19.300;2023-02-01T21:52:15;10.85;;;3.65;;
57111;SDS011;42992;49.084;19.300;2023-02-01T21:54:40;8.70;;;4.90;;